Time;durP1;ratioP1;P1;durP2;ratioP2;P2;SDS_P1;SDS_P2;PMS_P1;PMS_P2;Temp;Humidity;BMP_temperature;BMP_pressure;BME280_temperature;BME280_humidity;BME280_pressure;Samples;Min_cycle;Max_cycle;Signal;HPM_P1;HPM_P2
2023/08/02 00:01:45;;;;;;;5.20;4.40;;;;;;;17.81;100.00;96399.84;110506;1242;58945;-71
2023/08/02 00:04:16;;;;;;;4.60;4.20;;;;;;;17.79;100.00;96403.42;110476;1242;58957;-70
2023/08/02 00:06:47;;;;;;;4.90;4.00;;;;;;;17.76;100.00;96404.61;110331;1243;70028;-70
2023/08/02 00:09:17;;;;;;;4.70;3.90;;;;;;;17.72;100.00;96407.88;110346;1241;68780;-70
2023/08/02 00:11:51;;;;;;;5.50;4.30;;;;;;;17.70;100.00;96403.28;110439;1244;69245;-69
2023/08/02 00:14:22;;;;;;;5.40;4.50;;;;;;;17.69;100.00;96405.11;110225;1245;58931;-70
2023/08/02 00:16:53;;;;;;;5.40;3.80;;;;;;;17.68;100.00;96402.54;110639;1242;58862;-70
2023/08/02 00:19:24;;;;;;;5.00;3.60;;;;;;;17.69;100.00;96399.66;110648;1241;70561;-69
2023/08/02 00:21:55;;;;;;;5.30;4.20;;;;;;;17.72;100.00;96402.25;110502;1242;69070;-69
2023/08/02 00:24:24;;;;;;;;;;;;;;;17.73;100.00;96403.61;110521;1243;69272;-70
2023/08/02 00:26:55;;;;;;;4.90;3.80;;;;;;;17.70;100.00;96403.52;110484;1242;58985;-70
2023/08/02 00:29:27;;;;;;;4.60;3.70;;;;;;;17.63;100.00;96404.94;110499;1242;58914;-69
2023/08/02 00:31:58;;;;;;;4.40;3.80;;;;;;;17.55;100.00;96406.56;110461;1242;70855;-70
2023/08/02 00:34:29;;;;;;;4.80;3.30;;;;;;;17.53;100.00;96407.64;110421;1242;69073;-69
2023/08/02 00:37:02;;;;;;;4.80;3.80;;;;;;;17.51;100.00;96410.40;110408;1242;69065;-69
2023/08/02 00:39:32;;;;;;;4.70;3.90;;;;;;;17.49;100.00;96408.02;110490;1242;58962;-70
2023/08/02 00:42:03;;;;;;;4.80;3.60;;;;;;;17.46;100.00;96409.09;110600;1242;59263;-70
2023/08/02 00:44:32;;;;;;;4.60;3.50;;;;;;;17.43;100.00;96408.89;110376;1242;69860;-69
2023/08/02 00:47:03;;;;;;;3.70;3.20;;;;;;;17.42;100.00;96411.67;110470;1242;69305;-71
2023/08/02 00:49:36;;;;;;;3.90;3.30;;;;;;;17.41;100.00;96418.29;110501;1240;67584;-71
2023/08/02 00:52:06;;;;;;;5.40;3.20;;;;;;;17.47;100.00;96427.09;110502;1242;58886;-70
2023/08/02 00:54:37;;;;;;;5.40;4.20;;;;;;;17.44;100.00;96430.48;110383;1243;58886;-70
2023/08/02 00:57:08;;;;;;;3.60;3.10;;;;;;;17.48;100.00;96432.02;110470;1242;70867;-70
2023/08/02 00:59:40;;;;;;;4.10;3.30;;;;;;;17.47;100.00;96428.43;110367;1241;68721;-69
2023/08/02 01:02:11;;;;;;;4.10;3.40;;;;;;;17.34;100.00;96424.02;110374;1242;69374;-70
2023/08/02 01:04:45;;;;;;;4.80;3.80;;;;;;;17.30;100.00;96424.05;110399;1241;58902;-69
2023/08/02 01:07:33;;;;;;;6.00;3.80;;;;;;;17.28;100.00;96424.27;110377;1242;58841;-68
2023/08/02 01:10:21;;;;;;;5.10;4.10;;;;;;;17.27;100.00;96419.19;110478;1242;71176;-71
2023/08/02 01:12:55;;;;;;;4.60;3.50;;;;;;;17.23;100.00;96421.20;110298;1242;69500;-68
2023/08/02 01:15:27;;;;;;;5.10;4.00;;;;;;;17.24;100.00;96422.27;110304;1243;69083;-68
2023/08/02 01:18:01;;;;;;;4.70;4.20;;;;;;;17.18;100.00;96418.27;110202;1245;58938;-70
2023/08/02 01:20:31;;;;;;;4.40;3.70;;;;;;;17.14;100.00;96417.48;110439;1241;58898;-69
2023/08/02 01:23:02;;;;;;;4.90;3.90;;;;;;;17.12;100.00;96414.02;110399;1242;70555;-69
2023/08/02 01:25:36;;;;;;;5.30;4.00;;;;;;;17.16;100.00;96419.21;110459;1243;68838;-70
2023/08/02 01:28:16;;;;;;;3.60;3.20;;;;;;;17.11;100.00;96423.45;110453;1242;68387;-70
2023/08/02 01:30:49;;;;;;;5.70;3.80;;;;;;;17.11;100.00;96425.42;110186;1241;58953;-69
2023/08/02 01:33:23;;;;;;;4.30;3.90;;;;;;;17.12;100.00;96429.54;110394;1242;58937;-69
2023/08/02 01:35:55;;;;;;;5.20;4.00;;;;;;;17.12;100.00;96432.30;110471;1241;69853;-68
2023/08/02 01:38:28;;;;;;;6.20;4.50;;;;;;;17.20;100.00;96430.36;110472;1240;68471;-70
2023/08/02 01:41:01;;;;;;;6.60;4.40;;;;;;;17.24;100.00;96430.14;110458;1242;69312;-70
2023/08/02 01:43:33;;;;;;;4.60;4.10;;;;;;;17.19;100.00;96436.28;110489;1242;58953;-69
2023/08/02 01:46:05;;;;;;;6.20;4.20;;;;;;;17.16;100.00;96437.37;110235;1241;58937;-69
2023/08/02 01:48:36;;;;;;;4.00;3.60;;;;;;;17.16;100.00;96438.88;110514;1241;69854;-69
2023/08/02 01:51:09;;;;;;;4.40;4.00;;;;;;;17.01;100.00;96437.66;110175;1241;69095;-68
2023/08/02 01:53:39;;;;;;;5.40;4.40;;;;;;;16.94;100.00;96432.00;110467;1243;69294;-69
2023/08/02 01:56:11;;;;;;;5.30;4.20;;;;;;;16.87;100.00;96430.30;110224;1246;58932;-69
2023/08/02 01:58:43;;;;;;;5.40;4.00;;;;;;;16.83;100.00;96428.84;110201;1244;58935;-68
2023/08/02 02:01:14;;;;;;;5.50;3.80;;;;;;;16.80;100.00;96434.36;110497;1242;70563;-69
2023/08/02 02:03:45;;;;;;;5.30;4.00;;;;;;;16.81;100.00;96433.92;110332;1239;68548;-70
2023/08/02 02:06:19;;;;;;;5.70;4.50;;;;;;;16.88;100.00;96431.41;110500;1242;68536;-70
2023/08/02 02:08:52;;;;;;;6.10;4.80;;;;;;;16.85;100.00;96434.92;110523;1242;58874;-69
2023/08/02 02:11:24;;;;;;;6.10;4.80;;;;;;;16.70;100.00;96437.85;110186;1244;58929;-70
2023/08/02 02:13:58;;;;;;;5.10;4.20;;;;;;;16.69;100.00;96435.98;110540;1241;69821;-70
2023/08/02 02:16:29;;;;;;;5.20;4.50;;;;;;;16.76;100.00;96436.46;110441;1241;68358;-69
2023/08/02 02:19:00;;;;;;;5.60;4.60;;;;;;;16.71;100.00;96441.38;110172;1251;69426;-69
2023/08/02 02:21:32;;;;;;;6.20;4.40;;;;;;;16.68;100.00;96443.83;110421;1242;58895;-69
2023/08/02 02:24:03;;;;;;;4.90;4.10;;;;;;;16.65;100.00;96451.45;110395;1244;58868;-68
2023/08/02 02:26:34;;;;;;;6.20;4.40;;;;;;;16.65;100.00;96453.29;110378;1242;70859;-70
2023/08/02 02:29:06;;;;;;;4.90;4.40;;;;;;;16.66;100.00;96450.89;110198;1242;67378;-70
2023/08/02 02:31:39;;;;;;;5.00;4.40;;;;;;;16.67;100.00;96451.88;110612;1244;69280;-70
2023/08/02 02:34:13;;;;;;;4.70;3.90;;;;;;;16.68;100.00;96454.00;110349;1242;58937;-69
2023/08/02 02:36:49;;;;;;;4.60;4.00;;;;;;;16.71;100.00;96454.77;110295;1242;59311;-68
2023/08/02 02:39:23;;;;;;;5.90;4.30;;;;;;;16.71;100.00;96448.77;110457;1248;69993;-71
2023/08/02 02:41:58;;;;;;;4.70;4.20;;;;;;;16.72;100.00;96447.77;110183;1243;68488;-68
2023/08/02 02:44:43;;;;;;;4.00;3.50;;;;;;;16.72;100.00;96453.04;110478;1250;68490;-69
2023/08/02 02:47:15;;;;;;;4.90;4.00;;;;;;;16.69;100.00;96452.88;110490;1242;58893;-70
2023/08/02 02:49:52;;;;;;;5.10;4.60;;;;;;;16.65;100.00;96455.92;110518;1243;58891;-69
2023/08/02 02:52:24;;;;;;;4.80;4.20;;;;;;;16.63;100.00;96454.76;110500;1241;70592;-69
2023/08/02 02:54:57;;;;;;;5.40;4.50;;;;;;;16.65;100.00;96453.33;110512;1242;69213;-69
2023/08/02 02:57:27;;;;;;;5.20;4.30;;;;;;;16.69;100.00;96460.09;110547;1241;69309;-69
2023/08/02 02:59:59;;;;;;;5.20;4.40;;;;;;;16.72;100.00;96454.64;110501;1241;58923;-67
2023/08/02 03:02:30;;;;;;;6.10;4.30;;;;;;;16.75;100.00;96460.77;110506;1241;58858;-70
2023/08/02 03:05:01;;;;;;;5.30;4.50;;;;;;;16.78;100.00;96471.27;110206;1242;70354;-69
2023/08/02 03:07:33;;;;;;;5.40;4.60;;;;;;;16.77;100.00;96476.04;110501;1244;67804;-68
2023/08/02 03:10:06;;;;;;;5.40;4.90;;;;;;;16.72;100.00;96471.54;110392;1242;68591;-68
2023/08/02 03:12:36;;;;;;;6.10;4.60;;;;;;;16.66;100.00;96474.44;110488;1248;58905;-70
2023/08/02 03:15:06;;;;;;;6.40;4.80;;;;;;;16.60;100.00;96476.58;110146;1250;58941;-69
2023/08/02 03:17:35;;;;;;;5.90;4.70;;;;;;;16.52;100.00;96485.89;110359;1242;69847;-68
2023/08/02 03:20:07;;;;;;;5.70;5.00;;;;;;;16.44;100.00;96496.16;110297;1242;69112;-70
2023/08/02 03:22:38;;;;;;;6.70;5.80;;;;;;;16.40;100.00;96500.23;110360;1242;69207;-68
2023/08/02 03:25:08;;;;;;;7.20;6.00;;;;;;;16.38;100.00;96508.25;110415;1245;58944;-68
2023/08/02 03:27:40;;;;;;;6.60;5.50;;;;;;;16.33;100.00;96514.21;110413;1242;58936;-69
2023/08/02 03:30:09;;;;;;;;;;;;;;;16.35;100.00;96520.77;110444;1242;70464;-69
2023/08/02 03:32:39;;;;;;;5.60;4.80;;;;;;;16.41;100.00;96529.58;110393;1242;69226;-67
2023/08/02 03:35:10;;;;;;;6.80;6.10;;;;;;;16.46;100.00;96540.17;110358;1244;68487;-68
2023/08/02 03:37:40;;;;;;;6.30;5.40;;;;;;;16.46;100.00;96549.74;110441;1242;58932;-67
2023/08/02 03:40:10;;;;;;;7.50;5.10;;;;;;;16.43;100.00;96546.23;110386;1244;58933;-69
2023/08/02 03:42:41;;;;;;;6.00;5.40;;;;;;;16.41;100.00;96546.77;110342;1249;69911;-68
2023/08/02 03:45:11;;;;;;;7.50;5.30;;;;;;;16.42;100.00;96545.57;110317;1243;69085;-68
2023/08/02 03:47:41;;;;;;;5.90;5.00;;;;;;;16.46;100.00;96549.77;110312;1249;69841;-68
2023/08/02 03:50:11;;;;;;;5.60;4.60;;;;;;;16.50;100.00;96553.89;110310;1242;58877;-68
2023/08/02 03:52:43;;;;;;;5.40;4.60;;;;;;;16.55;100.00;96556.81;110147;1250;58921;-70
2023/08/02 03:55:13;;;;;;;5.90;5.30;;;;;;;16.51;100.00;96560.91;110476;1241;69761;-70
2023/08/02 03:57:42;;;;;;;;;;;;;;;16.65;100.00;96560.30;110389;1242;69436;-70
2023/08/02 04:00:12;;;;;;;6.40;5.10;;;;;;;16.74;100.00;96555.91;110378;1241;68417;-68
2023/08/02 04:02:41;;;;;;;5.80;5.20;;;;;;;16.82;100.00;96550.19;110427;1248;58953;-68
2023/08/02 04:05:11;;;;;;;6.90;5.40;;;;;;;16.87;100.00;96547.90;110530;1242;58850;-68
2023/08/02 04:07:41;;;;;;;6.30;5.20;;;;;;;16.92;100.00;96542.13;110487;1241;69876;-70
2023/08/02 04:10:11;;;;;;;5.70;5.10;;;;;;;16.98;100.00;96540.98;110516;1240;69259;-69
2023/08/02 04:12:41;;;;;;;5.20;4.70;;;;;;;16.90;100.00;96546.77;110425;1243;69274;-69
2023/08/02 04:15:13;;;;;;;8.00;5.30;;;;;;;17.03;100.00;96545.71;110156;1241;58900;-68
2023/08/02 04:17:42;;;;;;;6.10;5.10;;;;;;;17.09;100.00;96539.86;110428;1242;58879;-67
2023/08/02 04:20:12;;;;;;;5.50;5.00;;;;;;;17.12;100.00;96531.10;110383;1241;70581;-69
2023/08/02 04:22:43;;;;;;;5.80;5.20;;;;;;;17.16;100.00;96525.20;110498;1242;68456;-69
2023/08/02 04:25:13;;;;;;;5.40;4.90;;;;;;;17.22;100.00;96535.20;110175;1243;67552;-68
2023/08/02 04:27:43;;;;;;;6.90;6.20;;;;;;;17.22;100.00;96543.52;110460;1241;58867;-68
2023/08/02 04:30:13;;;;;;;6.70;5.40;;;;;;;17.15;100.00;96549.80;110355;1242;58817;-69
2023/08/02 04:32:42;;;;;;;7.90;5.70;;;;;;;17.11;100.00;96558.36;110424;1242;70566;-69
2023/08/02 04:35:12;;;;;;;5.80;5.20;;;;;;;17.06;100.00;96559.91;110445;1242;69309;-70
2023/08/02 04:37:42;;;;;;;5.80;4.80;;;;;;;17.05;100.00;96556.33;110516;1249;69287;-69
2023/08/02 04:40:12;;;;;;;6.40;5.50;;;;;;;17.07;100.00;96564.43;110456;1242;58899;-69
2023/08/02 04:42:42;;;;;;;7.80;5.60;;;;;;;17.09;100.00;96573.88;110232;1241;58894;-70
2023/08/02 04:45:12;;;;;;;7.60;6.80;;;;;;;17.05;100.00;96589.11;110452;1241;70993;-69
2023/08/02 04:47:41;;;;;;;6.90;5.80;;;;;;;17.00;100.00;96582.09;110227;1240;68368;-69
2023/08/02 04:50:11;;;;;;;8.20;7.00;;;;;;;16.96;100.00;96577.61;110426;1242;68508;-69
2023/08/02 04:52:41;;;;;;;8.10;6.60;;;;;;;16.88;100.00;96588.92;110435;1241;59297;-69
2023/08/02 04:55:10;;;;;;;6.90;6.20;;;;;;;16.78;100.00;96585.10;110454;1242;58830;-69
2023/08/02 04:57:40;;;;;;;6.80;5.70;;;;;;;16.74;100.00;96585.19;110410;1241;69940;-70
2023/08/02 05:00:10;;;;;;;6.80;5.70;;;;;;;16.77;100.00;96578.14;110376;1242;70171;-69
2023/08/02 05:02:39;;;;;;;8.60;7.20;;;;;;;16.82;100.00;96577.84;110499;1242;69232;-68
2023/08/02 05:05:09;;;;;;;;;;;;;;;16.87;100.00;96573.05;110536;1242;58939;-69
2023/08/02 05:07:39;;;;;;;7.90;6.60;;;;;;;16.91;100.00;96574.66;110506;1242;58857;-69
2023/08/02 05:10:09;;;;;;;8.30;6.80;;;;;;;16.94;100.00;96591.94;110497;1242;69860;-69
2023/08/02 05:12:39;;;;;;;6.80;5.70;;;;;;;16.97;100.00;96585.43;110306;1243;68843;-68
2023/08/02 05:15:09;;;;;;;6.80;6.10;;;;;;;17.00;100.00;96559.08;110334;1241;69256;-70
2023/08/02 05:17:38;;;;;;;8.90;7.20;;;;;;;17.02;100.00;96552.84;110404;1248;58940;-69
2023/08/02 05:20:09;;;;;;;9.10;7.00;;;;;;;17.00;100.00;96554.46;110447;1241;58930;-70
2023/08/02 05:22:38;;;;;;;7.30;6.30;;;;;;;16.99;100.00;96554.16;110343;1240;69842;-68
2023/08/02 05:25:09;;;;;;;9.80;7.80;;;;;;;17.01;100.00;96553.43;110279;1242;69061;-68
2023/08/02 05:27:38;;;;;;;9.10;7.90;;;;;;;17.02;100.00;96546.34;110345;1243;69201;-69
2023/08/02 05:30:08;;;;;;;9.80;7.30;;;;;;;17.02;100.00;96529.90;110448;1241;58943;-67
2023/08/02 05:32:37;;;;;;;;;;;;;;;17.03;100.00;96525.89;110421;1243;58864;-69
2023/08/02 05:35:07;;;;;;;;;;;;;;;17.04;100.00;96558.42;110190;1241;70756;-67
2023/08/02 05:37:37;;;;;;;8.00;7.20;;;;;;;17.02;100.00;96589.79;110351;1242;68427;-70
2023/08/02 05:40:07;;;;;;;7.80;6.10;;;;;;;17.03;100.00;96576.30;110338;1241;69926;-69
2023/08/02 05:42:36;;;;;;;9.10;7.50;;;;;;;17.05;100.00;96563.43;110303;1241;58887;-69
2023/08/02 05:45:06;;;;;;;7.30;6.40;;;;;;;17.06;100.00;96583.93;110379;1241;58937;-68
2023/08/02 05:47:35;;;;;;;;;;;;;;;17.08;100.00;96583.30;110230;1242;69652;-70
2023/08/02 05:50:06;;;;;;;7.80;7.00;;;;;;;17.13;100.00;96587.98;110183;1243;69372;-69
2023/08/02 05:52:34;;;;;;;;;;;;;;;17.14;100.00;96589.84;110282;1245;69282;-69
2023/08/02 05:55:04;;;;;;;10.90;7.90;;;;;;;17.16;100.00;96596.30;110158;1244;58940;-69
2023/08/02 05:57:33;;;;;;;;;;;;;;;17.19;100.00;96607.04;110149;1244;58851;-71
2023/08/02 06:00:04;;;;;;;7.40;6.30;;;;;;;17.20;100.00;96611.24;110173;1245;70577;-69
2023/08/02 06:02:34;;;;;;;10.60;8.30;;;;;;;17.21;100.00;96606.87;110292;1242;69489;-70
2023/08/02 06:05:04;;;;;;;12.50;9.30;;;;;;;17.21;100.00;96584.65;110381;1241;69840;-68
2023/08/02 06:07:33;;;;;;;9.80;8.60;;;;;;;17.22;100.00;96577.65;110198;1242;58891;-69
2023/08/02 06:10:03;;;;;;;10.60;8.80;;;;;;;17.25;100.00;96587.14;110112;1247;58894;-69
2023/08/02 06:12:32;;;;;;;10.50;9.20;;;;;;;17.29;100.00;96586.56;110212;1243;71285;-70
2023/08/02 06:15:01;;;;;;;10.10;8.10;;;;;;;17.34;100.00;96573.86;110187;1241;69233;-68
2023/08/02 06:17:30;;;;;;;8.30;7.40;;;;;;;17.39;100.00;96570.70;110142;1242;69738;-70
2023/08/02 06:20:00;;;;;;;7.90;7.00;;;;;;;17.43;100.00;96580.05;110216;1242;59091;-69
2023/08/02 06:22:29;;;;;;;11.10;7.40;;;;;;;17.48;100.00;96589.92;110291;1242;58884;-70
2023/08/02 06:24:58;;;;;;;11.70;7.80;;;;;;;17.52;100.00;96602.45;110264;1241;70564;-67
2023/08/02 06:27:28;;;;;;;9.00;7.70;;;;;;;17.57;100.00;96611.47;110211;1242;68487;-68
2023/08/02 06:29:57;;;;;;;8.40;7.30;;;;;;;17.62;100.00;96619.49;110238;1243;69258;-69
2023/08/02 06:32:26;;;;;;;7.50;6.60;;;;;;;17.68;100.00;96624.61;110216;1243;58892;-69
2023/08/02 06:34:56;;;;;;;8.70;7.40;;;;;;;17.73;100.00;96621.96;110165;1245;58954;-69
2023/08/02 06:37:25;;;;;;;6.90;5.80;;;;;;;17.78;100.00;96620.83;110186;1243;70547;-68
2023/08/02 06:39:54;;;;;;;7.40;5.40;;;;;;;17.81;100.00;96625.98;110264;1243;68553;-69
2023/08/02 06:42:23;;;;;;;5.70;5.00;;;;;;;17.82;100.00;96636.73;110247;1242;69258;-67
2023/08/02 06:44:52;;;;;;;6.50;4.90;;;;;;;17.84;100.00;96645.55;110214;1241;58879;-68
2023/08/02 06:47:21;;;;;;;8.60;5.40;;;;;;;17.81;100.00;96650.44;110227;1241;58931;-67
2023/08/02 06:49:50;;;;;;;8.60;6.00;;;;;;;17.79;100.00;96656.80;110210;1242;70404;-67
2023/08/02 06:52:20;;;;;;;7.20;5.80;;;;;;;17.80;100.00;96654.21;110270;1244;69679;-69
2023/08/02 06:54:53;;;;;;;7.50;6.30;;;;;;;17.80;100.00;96648.83;110193;1242;69927;-66
2023/08/02 06:57:24;;;;;;;8.40;6.60;;;;;;;17.81;100.00;96646.77;110189;1242;58914;-66
2023/08/02 06:59:55;;;;;;;9.60;7.00;;;;;;;17.78;100.00;96648.79;110212;1242;59303;-69
2023/08/02 07:02:24;;;;;;;8.00;6.40;;;;;;;17.80;100.00;96648.03;110259;1241;70524;-68
2023/08/02 07:04:53;;;;;;;8.50;6.10;;;;;;;17.77;100.00;96649.51;110244;1242;68499;-69
2023/08/02 07:07:22;;;;;;;8.30;6.00;;;;;;;17.76;100.00;96655.98;110196;1242;69743;-68
2023/08/02 07:09:51;;;;;;;6.80;5.90;;;;;;;17.74;100.00;96649.51;110209;1242;58840;-69
2023/08/02 07:12:20;;;;;;;7.40;6.40;;;;;;;17.72;100.00;96640.50;110190;1242;58873;-68
2023/08/02 07:14:49;;;;;;;8.50;7.20;;;;;;;17.70;100.00;96642.50;110245;1241;72089;-69
2023/08/02 07:17:18;;;;;;;7.50;6.60;;;;;;;17.72;100.00;96637.91;110171;1241;69106;-68
2023/08/02 07:19:47;;;;;;;8.40;6.10;;;;;;;17.67;100.00;96651.45;110229;1244;69219;-68
2023/08/02 07:22:17;;;;;;;;;;;;;;;17.62;100.00;96664.52;110237;1241;58883;-70
2023/08/02 07:24:46;;;;;;;6.00;5.20;;;;;;;17.66;100.00;96672.52;110191;1242;58833;-69
2023/08/02 07:27:16;;;;;;;6.10;4.70;;;;;;;17.66;100.00;96676.23;110184;1240;71009;-69
2023/08/02 07:29:49;;;;;;;5.70;4.80;;;;;;;17.62;100.00;96669.03;110289;1242;69785;-69
2023/08/02 07:32:18;;;;;;;6.50;5.60;;;;;;;17.61;100.00;96679.86;110375;1242;69399;-68
2023/08/02 07:34:47;;;;;;;5.60;5.10;;;;;;;17.60;100.00;96678.94;110234;1243;58867;-70
2023/08/02 07:37:16;;;;;;;7.10;6.20;;;;;;;17.56;100.00;96675.05;110260;1241;59014;-70
2023/08/02 07:39:45;;;;;;;6.10;5.30;;;;;;;17.55;100.00;96674.14;110281;1241;70544;-68
2023/08/02 07:42:14;;;;;;;5.80;5.20;;;;;;;17.54;100.00;96672.09;110323;1241;68524;-67
2023/08/02 07:44:42;;;;;;;5.90;5.10;;;;;;;17.47;100.00;96684.05;110237;1242;69224;-68
2023/08/02 07:47:11;;;;;;;6.40;5.60;;;;;;;17.45;100.00;96673.85;110260;1242;59320;-68
2023/08/02 07:49:40;;;;;;;6.20;5.10;;;;;;;17.43;100.00;96679.62;110200;1245;58878;-69
2023/08/02 07:52:09;;;;;;;6.60;5.20;;;;;;;17.35;100.00;96678.35;110170;1243;69685;-68
2023/08/02 07:54:38;;;;;;;6.40;5.30;;;;;;;17.30;100.00;96674.52;110247;1241;68269;-65
2023/08/02 07:57:25;;;;;;;9.10;6.50;;;;;;;17.26;100.00;96682.35;110229;1242;69312;-66
2023/08/02 07:59:56;;;;;;;7.80;6.90;;;;;;;17.20;100.00;96678.80;110207;1241;59319;-66
2023/08/02 08:02:27;;;;;;;9.00;6.30;;;;;;;17.14;100.00;96672.30;110236;1244;58952;-67
2023/08/02 08:04:56;;;;;;;7.70;6.40;;;;;;;17.09;100.00;96677.92;110221;1244;70575;-65
2023/08/02 08:07:26;;;;;;;;;;;;;;;17.08;100.00;96681.71;110246;1242;69255;-69
2023/08/02 08:09:55;;;;;;;8.50;6.10;;;;;;;17.08;100.00;96682.05;110229;1242;69271;-67
2023/08/02 08:12:27;;;;;;;6.70;6.00;;;;;;;17.11;100.00;96684.39;110228;1242;58898;-68
2023/08/02 08:14:56;;;;;;;7.90;7.10;;;;;;;17.14;100.00;96680.58;110213;1242;58856;-67
2023/08/02 08:17:25;;;;;;;8.50;5.90;;;;;;;17.13;100.00;96679.55;110279;1242;71239;-69
2023/08/02 08:19:55;;;;;;;7.30;6.60;;;;;;;17.15;100.00;96664.44;110234;1241;69626;-69
2023/08/02 08:22:28;;;;;;;9.40;7.20;;;;;;;17.17;100.00;96649.21;110283;1241;69253;-68
2023/08/02 08:24:58;;;;;;;8.50;6.20;;;;;;;17.22;100.00;96652.72;110290;1242;58938;-68
2023/08/02 08:27:27;;;;;;;8.70;6.80;;;;;;;17.24;100.00;96656.15;110268;1243;58869;-68
2023/08/02 08:29:56;;;;;;;7.10;6.40;;;;;;;17.25;100.00;96658.88;110219;1241;70910;-66
2023/08/02 08:32:27;;;;;;;6.40;5.10;;;;;;;17.27;100.00;96669.41;110252;1243;69257;-68
2023/08/02 08:34:57;;;;;;;8.10;6.40;;;;;;;17.29;100.00;96684.29;110244;1242;69292;-68
2023/08/02 08:37:26;;;;;;;8.10;5.80;;;;;;;17.31;100.00;96695.17;110270;1242;58873;-68
2023/08/02 08:39:55;;;;;;;7.30;6.40;;;;;;;17.26;100.00;96705.76;110224;1242;58879;-67
2023/08/02 08:42:52;;;;;;;7.70;6.70;;;;;;;17.22;100.00;96697.23;110235;1241;71007;-69
2023/08/02 08:45:25;;;;;;;6.50;5.80;;;;;;;17.19;100.00;96691.78;110159;1242;69822;-68
2023/08/02 08:47:54;;;;;;;8.40;7.50;;;;;;;17.16;100.00;96686.30;110217;1248;69684;-69
2023/08/02 08:50:23;;;;;;;7.80;7.00;;;;;;;17.14;100.00;96696.48;110172;1242;58929;-69
2023/08/02 08:52:55;;;;;;;9.00;7.60;;;;;;;17.15;100.00;96691.11;110257;1242;58893;-68
2023/08/02 08:55:28;;;;;;;7.80;6.50;;;;;;;17.18;100.00;96695.95;110207;1241;71511;-67
2023/08/02 08:57:57;;;;;;;7.50;6.40;;;;;;;17.22;100.00;96707.55;110245;1242;68836;-67
2023/08/02 09:00:38;;;;;;;8.90;6.60;;;;;;;17.34;100.00;96719.18;110230;1240;69240;-67
2023/08/02 09:03:08;;;;;;;7.30;6.40;;;;;;;17.43;100.00;96715.18;110183;1242;58928;-66
2023/08/02 09:05:38;;;;;;;7.40;6.60;;;;;;;17.56;100.00;96700.33;110222;1241;58957;-67
2023/08/02 09:08:06;;;;;;;7.70;6.90;;;;;;;17.70;100.00;96699.77;110203;1247;70052;-67
2023/08/02 09:10:35;;;;;;;7.80;7.00;;;;;;;17.81;100.00;96697.83;110290;1241;69611;-65
2023/08/02 09:13:04;;;;;;;6.90;6.20;;;;;;;17.94;100.00;96704.52;110204;1241;69874;-67
2023/08/02 09:15:33;;;;;;;7.30;6.60;;;;;;;17.98;100.00;96721.11;110241;1242;58854;-67
2023/08/02 09:18:03;;;;;;;6.60;5.90;;;;;;;18.12;100.00;96733.65;110189;1242;58866;-67
2023/08/02 09:20:32;;;;;;;7.20;6.50;;;;;;;18.26;100.00;96732.94;110233;1241;71136;-66
2023/08/02 09:23:14;;;;;;;7.20;6.30;;;;;;;18.37;100.00;96735.58;110219;1240;69110;-66
2023/08/02 09:25:44;;;;;;;7.20;6.40;;;;;;;18.47;100.00;96740.20;108605;1243;2102844;-67
2023/08/02 09:28:13;;;;;;;6.90;6.20;;;;;;;18.62;100.00;96739.15;110235;1248;58950;-67
2023/08/02 09:30:42;;;;;;;6.80;6.10;;;;;;;18.92;100.00;96737.63;110203;1241;58906;-68
2023/08/02 09:33:11;;;;;;;6.60;5.20;;;;;;;19.41;100.00;96732.76;110222;1240;71245;-68
2023/08/02 09:35:50;;;;;;;7.00;5.10;;;;;;;19.92;100.00;96740.73;110286;1242;69246;-68
2023/08/02 09:38:19;;;;;;;5.30;4.70;;;;;;;20.48;100.00;96736.65;110233;1240;69933;-66
2023/08/02 09:40:48;;;;;;;6.10;5.10;;;;;;;20.87;100.00;96737.19;110194;1241;58951;-64
2023/08/02 09:43:20;;;;;;;5.30;4.70;;;;;;;21.21;100.00;96738.19;110236;1242;58850;-67
2023/08/02 09:45:49;;;;;;;4.70;4.30;;;;;;;21.93;99.89;96742.30;110192;1240;70398;-67
2023/08/02 09:48:19;;;;;;;5.50;4.30;;;;;;;22.81;100.00;96744.19;110211;1242;69224;-67
2023/08/02 09:50:53;;;;;;;;;;;;;;;23.62;98.10;96739.43;110217;1245;69098;-67
2023/08/02 09:53:23;;;;;;;5.20;4.60;;;;;;;24.01;90.15;96743.29;110203;1240;58864;-67
2023/08/02 09:55:58;;;;;;;4.60;4.20;;;;;;;24.18;87.31;96739.56;110199;1241;58902;-66
2023/08/02 09:58:30;;;;;;;4.80;4.40;;;;;;;24.64;86.77;96733.21;110139;1241;70442;-66
2023/08/02 10:01:01;;;;;;;4.90;4.50;;;;;;;25.27;82.49;96736.66;110200;1242;69810;-65
2023/08/02 10:03:32;;;;;;;4.40;4.00;;;;;;;25.52;75.89;96731.38;110162;1240;68517;-66
2023/08/02 10:06:06;;;;;;;4.20;3.80;;;;;;;25.82;76.10;96735.02;110161;1242;59208;-64
2023/08/02 10:08:40;;;;;;;4.50;4.10;;;;;;;26.08;73.53;96739.95;110235;1241;58918;-67
2023/08/02 10:11:09;;;;;;;5.00;4.20;;;;;;;26.05;70.31;96741.45;110227;1241;71180;-66
2023/08/02 10:13:43;;;;;;;4.50;4.10;;;;;;;26.33;69.31;96738.20;110114;1244;68667;-64
2023/08/02 10:16:14;;;;;;;3.90;3.50;;;;;;;26.33;70.88;96735.86;110200;1242;69926;-65
2023/08/02 10:18:44;;;;;;;4.00;3.60;;;;;;;26.69;68.79;96736.03;110239;1241;58950;-66
2023/08/02 10:21:15;;;;;;;4.10;3.60;;;;;;;26.89;68.15;96734.13;110209;1242;58891;-67
2023/08/02 10:23:45;;;;;;;3.70;3.40;;;;;;;26.87;68.16;96727.84;110248;1242;70668;-67
2023/08/02 10:26:15;;;;;;;4.10;3.70;;;;;;;27.25;65.94;96729.67;110261;1242;69275;-67
2023/08/02 10:28:45;;;;;;;3.50;3.20;;;;;;;27.11;63.44;96730.36;110197;1244;70185;-66
2023/08/02 10:31:14;;;;;;;3.90;3.40;;;;;;;27.11;64.37;96727.96;110207;1242;58898;-67
2023/08/02 10:33:43;;;;;;;3.80;3.50;;;;;;;26.25;63.63;96736.89;110268;1242;58930;-67
2023/08/02 10:36:12;;;;;;;4.20;3.80;;;;;;;26.26;63.54;96739.30;110237;1240;70508;-66
2023/08/02 10:38:42;;;;;;;4.10;3.60;;;;;;;25.78;64.41;96733.04;110258;1242;69155;-65
2023/08/02 10:41:13;;;;;;;4.20;3.90;;;;;;;25.75;65.36;96732.87;110234;1242;70609;-65
2023/08/02 10:43:54;;;;;;;4.90;4.40;;;;;;;25.76;66.15;96729.33;110244;1242;58979;-65
2023/08/02 10:46:27;;;;;;;4.60;4.00;;;;;;;25.64;68.11;96727.84;110203;1242;58922;-65
2023/08/02 10:49:09;;;;;;;4.40;3.90;;;;;;;25.26;68.69;96733.70;110209;1242;70536;-65
2023/08/02 10:51:42;;;;;;;5.30;4.80;;;;;;;24.71;70.47;96734.05;110158;1240;67775;-66
2023/08/02 10:54:21;;;;;;;5.60;5.10;;;;;;;24.43;72.44;96735.11;110186;1242;68774;-66
2023/08/02 10:56:51;;;;;;;5.50;5.00;;;;;;;24.26;73.01;96737.59;110189;1242;58862;-66
2023/08/02 10:59:23;;;;;;;6.40;5.80;;;;;;;24.25;72.87;96738.08;110232;1241;58985;-65
2023/08/02 11:01:55;;;;;;;5.50;4.80;;;;;;;24.16;73.50;96741.80;110199;1243;71127;-65
2023/08/02 11:04:26;;;;;;;5.40;4.90;;;;;;;24.29;75.45;96741.04;110214;1240;68328;-65
2023/08/02 11:06:55;;;;;;;5.50;5.00;;;;;;;24.70;73.74;96738.64;110161;1242;70129;-66
2023/08/02 11:09:34;;;;;;;5.40;4.90;;;;;;;25.23;71.61;96731.15;110225;1240;58954;-66
2023/08/02 11:12:11;;;;;;;4.60;4.20;;;;;;;25.79;70.25;96729.87;110243;1242;58922;-66
2023/08/02 11:14:43;;;;;;;5.30;4.60;;;;;;;26.30;66.98;96726.70;110256;1242;71191;-65
2023/08/02 11:17:22;;;;;;;5.10;4.60;;;;;;;26.95;65.39;96724.29;110209;1242;69224;-67
2023/08/02 11:19:54;;;;;;;4.10;3.70;;;;;;;27.59;62.55;96721.80;110185;1241;69275;-67
2023/08/02 11:22:36;;;;;;;4.90;4.50;;;;;;;28.14;62.86;96724.20;110209;1241;58934;-65
2023/08/02 11:25:09;;;;;;;5.60;5.10;;;;;;;28.18;56.27;96716.71;110279;1241;58963;-67
2023/08/02 11:27:39;;;;;;;5.10;4.60;;;;;;;27.67;58.74;96714.70;110204;1241;70578;-65
2023/08/02 11:30:11;;;;;;;4.60;4.10;;;;;;;27.42;60.56;96716.54;110270;1240;69276;-67
2023/08/02 11:32:45;;;;;;;5.40;4.90;;;;;;;27.58;60.65;96711.77;110244;1241;68553;-66
2023/08/02 11:35:16;;;;;;;4.60;4.10;;;;;;;27.93;59.96;96709.35;110252;1241;58921;-66
2023/08/02 11:37:46;;;;;;;5.10;4.60;;;;;;;28.13;57.99;96707.90;110221;1240;58881;-65
2023/08/02 11:40:15;;;;;;;4.20;3.80;;;;;;;28.17;56.92;96704.66;110193;1241;71005;-66